createdAt,value
2018-12-09T00:00:38.554Z,8.91
2018-12-09T00:03:07.602Z,8.92
2018-12-09T00:05:36.354Z,8.97
2018-12-09T00:08:04.920Z,8.90
2018-12-09T00:10:33.725Z,8.90
2018-12-09T00:13:03.508Z,8.95
2018-12-09T00:15:32.210Z,8.94
2018-12-09T00:18:01.387Z,9.04
2018-12-09T00:20:30.220Z,9.02
2018-12-09T00:23:03.272Z,9.01
2018-12-09T00:25:31.721Z,8.94
2018-12-09T00:28:00.894Z,9.22
2018-12-09T00:30:29.765Z,9.21
2018-12-09T00:32:59.227Z,9.27
2018-12-09T00:35:28.578Z,9.13
2018-12-09T00:37:57.814Z,9.17
2018-12-09T00:40:26.289Z,9.14
2018-12-09T00:42:55.399Z,9.02
2018-12-09T00:45:23.910Z,9.03
2018-12-09T00:47:52.373Z,8.97
2018-12-09T00:50:21.167Z,9.04
2018-12-09T00:52:50.353Z,9.02
2018-12-09T00:55:19.282Z,8.97
2018-12-09T00:57:48.131Z,8.71
2018-12-09T01:00:17.141Z,8.79
2018-12-09T01:02:46.720Z,8.78
2018-12-09T01:05:15.429Z,8.82
2018-12-09T01:07:43.884Z,8.73
2018-12-09T01:10:12.320Z,8.78
2018-12-09T01:12:40.781Z,8.78
2018-12-09T01:15:10.861Z,8.78
2018-12-09T01:17:39.820Z,8.81
2018-12-09T01:20:09.020Z,8.76
2018-12-09T01:22:38.224Z,8.76
2018-12-09T01:25:07.586Z,8.69
2018-12-09T01:27:36.879Z,8.65
2018-12-09T01:30:06.191Z,8.62
2018-12-09T01:32:36.324Z,8.68
2018-12-09T01:35:07.534Z,8.73
2018-12-09T01:37:36.892Z,8.66
2018-12-09T01:40:06.186Z,8.69
2018-12-09T01:42:39.306Z,8.51
2018-12-09T01:45:08.199Z,8.58
2018-12-09T01:47:36.966Z,8.46
2018-12-09T01:50:05.770Z,8.60
2018-12-09T01:52:34.525Z,8.55
2018-12-09T01:55:04.026Z,8.76
2018-12-09T01:57:32.458Z,8.76
2018-12-09T02:00:00.987Z,8.77
2018-12-09T02:02:29.773Z,8.73
2018-12-09T02:04:59.676Z,8.81
2018-12-09T02:07:28.120Z,8.77
2018-12-09T02:09:56.581Z,8.80
2018-12-09T02:12:25.495Z,8.74
2018-12-09T02:14:53.958Z,8.77
2018-12-09T02:17:22.555Z,8.69
2018-12-09T02:19:51.398Z,8.64
2018-12-09T02:22:19.950Z,8.80
2018-12-09T02:24:48.491Z,8.84
2018-12-09T02:27:17.041Z,8.93
2018-12-09T02:29:45.514Z,8.97
2018-12-09T02:32:13.953Z,8.98
2018-12-09T02:34:52.450Z,8.93
2018-12-09T02:37:20.913Z,8.96
2018-12-09T02:39:50.312Z,9.01
2018-12-09T02:42:19.124Z,8.92
2018-12-09T02:44:48.402Z,9.00
2018-12-09T02:47:16.843Z,9.05
2018-12-09T02:49:45.301Z,9.04
2018-12-09T02:52:13.842Z,9.01
2018-12-09T02:54:42.529Z,8.95
2018-12-09T02:57:10.957Z,8.96
2018-12-09T02:59:40.055Z,8.96
2018-12-09T03:02:08.534Z,8.98
2018-12-09T03:04:37.100Z,8.98
2018-12-09T03:07:05.575Z,8.96
2018-12-09T03:09:34.250Z,8.98
2018-12-09T03:12:03.562Z,8.88
2018-12-09T03:14:31.985Z,8.86
2018-12-09T03:17:00.451Z,8.83
2018-12-09T03:19:29.447Z,8.86
2018-12-09T03:21:57.930Z,8.81
2018-12-09T03:24:26.378Z,8.80
2018-12-09T03:26:55.198Z,8.86
2018-12-09T03:29:24.877Z,8.91
2018-12-09T03:31:53.403Z,8.85
2018-12-09T03:34:22.737Z,8.76
2018-12-09T03:36:52.219Z,8.78
2018-12-09T03:39:20.654Z,8.72
2018-12-09T03:41:49.353Z,8.67
2018-12-09T03:44:17.780Z,8.63
2018-12-09T03:46:46.241Z,8.72
2018-12-09T03:49:15.973Z,8.69
2018-12-09T03:51:44.441Z,8.67
2018-12-09T03:54:12.889Z,8.77
2018-12-09T03:56:41.367Z,8.78
2018-12-09T03:59:12.546Z,8.75
2018-12-09T04:01:41.385Z,8.78
2018-12-09T04:04:10.049Z,8.75
2018-12-09T04:06:38.550Z,8.69
2018-12-09T04:09:07.634Z,8.75
2018-12-09T04:11:36.102Z,8.77
2018-12-09T04:14:04.794Z,8.77
2018-12-09T04:16:34.095Z,8.78
2018-12-09T04:19:02.777Z,8.72
2018-12-09T04:21:32.136Z,8.76
2018-12-09T04:24:01.085Z,8.80
2018-12-09T04:26:29.638Z,8.74
2018-12-09T04:28:58.107Z,8.79
2018-12-09T04:31:26.561Z,8.76
2018-12-09T04:33:55.446Z,8.57
2018-12-09T04:36:24.221Z,8.62
2018-12-09T04:38:53.695Z,8.63
2018-12-09T04:41:22.910Z,8.65
2018-12-09T04:43:51.920Z,8.63
2018-12-09T04:46:22.090Z,8.52
2018-12-09T04:48:50.936Z,8.54
2018-12-09T04:51:19.484Z,8.41
2018-12-09T04:53:47.940Z,8.40
2018-12-09T04:56:16.874Z,8.37
2018-12-09T04:59:23.371Z,8.37
2018-12-09T05:01:52.485Z,8.13
2018-12-09T05:04:22.289Z,8.11
2018-12-09T05:06:50.781Z,8.12
2018-12-09T05:09:19.467Z,8.07
2018-12-09T05:11:49.045Z,7.86
2018-12-09T05:14:17.965Z,7.86
2018-12-09T05:16:47.063Z,7.81
2018-12-09T05:19:15.531Z,7.81
2018-12-09T05:21:43.967Z,7.68
2018-12-09T05:24:12.460Z,7.62
2018-12-09T05:26:42.058Z,7.61
2018-12-09T05:29:10.986Z,7.53
2018-12-09T05:31:39.546Z,7.48
2018-12-09T05:34:08.004Z,7.30
2018-12-09T05:36:37.085Z,7.29
2018-12-09T05:39:06.647Z,7.22
2018-12-09T05:41:35.530Z,7.09
2018-12-09T05:44:04.110Z,7.04
2018-12-09T05:46:33.068Z,6.93
2018-12-09T05:49:01.530Z,6.91
2018-12-09T05:51:30.263Z,7.00
2018-12-09T05:53:58.985Z,7.02
2018-12-09T05:56:28.594Z,7.00
2018-12-09T05:58:57.062Z,7.05
2018-12-09T06:01:25.488Z,6.92
2018-12-09T06:03:54.200Z,6.96
2018-12-09T06:06:22.761Z,6.86
2018-12-09T06:08:52.463Z,6.95
2018-12-09T06:11:21.910Z,6.76
2018-12-09T06:13:50.406Z,6.66
2018-12-09T06:16:19.086Z,6.64
2018-12-09T06:18:47.593Z,6.67
2018-12-09T06:21:17.228Z,6.68
2018-12-09T06:23:45.709Z,6.55
2018-12-09T06:26:14.258Z,6.56
2018-12-09T06:28:43.076Z,6.50
2018-12-09T06:31:12.710Z,6.59
2018-12-09T06:33:41.155Z,6.55
2018-12-09T06:36:10.231Z,6.52
2018-12-09T06:38:38.671Z,6.49
2018-12-09T06:41:07.373Z,6.49
2018-12-09T06:43:35.786Z,6.51
2018-12-09T06:46:04.829Z,6.45
2018-12-09T06:48:33.651Z,6.50
2018-12-09T06:51:02.334Z,6.45
2018-12-09T06:53:30.775Z,6.53
2018-12-09T06:56:14.892Z,6.53
2018-12-09T06:58:44.923Z,6.53
2018-12-09T07:01:30.837Z,6.52
2018-12-09T07:04:06.866Z,6.58
2018-12-09T07:12:01.703Z,6.74
2018-12-09T07:14:31.068Z,6.67
2018-12-09T07:17:08.117Z,6.61
2018-12-09T07:19:36.642Z,6.74
2018-12-09T07:22:05.110Z,6.73
2018-12-09T07:25:02.211Z,6.70
2018-12-09T07:27:32.940Z,6.74
2018-12-09T07:30:03.652Z,6.71
2018-12-09T07:32:38.201Z,6.74
2018-12-09T07:35:09.692Z,6.79
2018-12-09T07:37:38.897Z,6.74
2018-12-09T07:40:10.164Z,6.75
2018-12-09T07:42:43.943Z,6.70
2018-12-09T07:45:13.926Z,6.76
2018-12-09T07:47:42.913Z,6.81
2018-12-09T07:50:17.582Z,6.77
2018-12-09T07:52:48.369Z,6.84
2018-12-09T07:55:19.382Z,6.85
2018-12-09T07:57:48.579Z,6.87
2018-12-09T08:00:19.781Z,6.89
2018-12-09T08:02:54.689Z,6.83
2018-12-09T08:05:27.163Z,6.85
2018-12-09T08:08:01.280Z,6.82
2018-12-09T08:10:52.785Z,6.79
2018-12-09T08:13:22.652Z,6.80
2018-12-09T08:15:52.851Z,6.80
2018-12-09T08:18:27.001Z,6.81
2018-12-09T08:20:56.962Z,6.82
2018-12-09T08:23:25.438Z,6.82
2018-12-09T08:25:59.791Z,6.83
2018-12-09T08:28:28.319Z,6.86
2018-12-09T08:30:58.437Z,6.89
2018-12-09T08:33:28.777Z,6.85
2018-12-09T08:36:00.775Z,6.74
2018-12-09T08:38:30.711Z,6.78
2018-12-09T08:41:01.613Z,6.82
2018-12-09T08:43:38.616Z,6.84
2018-12-09T08:46:33.038Z,6.96
2018-12-09T08:49:04.901Z,7.03
2018-12-09T08:51:35.521Z,7.12
2018-12-09T08:54:07.355Z,7.17
2018-12-09T08:56:38.512Z,7.22
2018-12-09T08:59:10.092Z,7.20
2018-12-09T09:01:41.485Z,7.24
2018-12-09T09:04:19.502Z,7.23
2018-12-09T09:06:48.416Z,7.40
2018-12-09T09:09:22.172Z,7.40
2018-12-09T09:11:53.634Z,7.44
2018-12-09T09:14:23.097Z,7.38
2018-12-09T09:16:51.530Z,7.53
2018-12-09T09:19:29.197Z,7.53
2018-12-09T09:22:02.144Z,7.55
2018-12-09T09:24:39.171Z,7.51
2018-12-09T09:27:11.476Z,7.56
2018-12-09T09:29:44.265Z,7.56
2018-12-09T09:32:20.730Z,7.56
2018-12-09T09:34:51.941Z,7.58
2018-12-09T09:37:28.687Z,7.58
2018-12-09T09:39:57.366Z,7.73
2018-12-09T09:42:32.922Z,7.66
2018-12-09T09:45:07.604Z,7.61
2018-12-09T09:47:39.763Z,7.62
2018-12-09T09:50:13.241Z,7.65
2018-12-09T09:52:45.749Z,7.58
2018-12-09T09:55:15.760Z,7.51
2018-12-09T09:57:44.214Z,7.41
2018-12-09T10:00:13.582Z,7.42
2018-12-09T10:02:42.744Z,7.44
2018-12-09T10:05:13.477Z,7.42
2018-12-09T10:07:42.758Z,7.42
2018-12-09T10:10:13.333Z,7.42
2018-12-09T10:12:41.892Z,7.50
2018-12-09T10:15:10.347Z,7.46
2018-12-09T10:17:42.903Z,7.42
2018-12-09T10:20:13.028Z,7.38
2018-12-09T10:22:42.731Z,7.37
2018-12-09T10:25:11.760Z,7.41
2018-12-09T10:27:41.007Z,7.47
2018-12-09T10:30:10.551Z,7.48
2018-12-09T10:32:39.236Z,7.41
2018-12-09T10:35:16.563Z,7.44
2018-12-09T10:37:48.635Z,7.46
2018-12-09T10:40:20.386Z,7.54
2018-12-09T10:42:49.721Z,7.57
2018-12-09T10:45:19.680Z,7.53
2018-12-09T10:47:51.664Z,7.55
2018-12-09T10:50:21.270Z,7.52
2018-12-09T10:52:51.682Z,7.49
2018-12-09T10:55:20.335Z,7.55
2018-12-09T10:57:48.797Z,7.49
2018-12-09T11:00:19.274Z,7.48
2018-12-09T11:02:47.968Z,7.49
2018-12-09T11:05:17.468Z,7.51
2018-12-09T11:07:46.046Z,7.47
2018-12-09T11:10:14.511Z,7.53
2018-12-09T11:12:44.058Z,7.49
2018-12-09T11:15:13.340Z,7.46
2018-12-09T11:17:41.823Z,7.48
2018-12-09T11:20:10.501Z,7.38
2018-12-09T11:22:40.040Z,7.32
2018-12-09T11:25:08.837Z,7.31
2018-12-09T11:27:38.627Z,7.35
2018-12-09T11:30:08.414Z,7.32
2018-12-09T11:32:37.564Z,7.27
2018-12-09T11:35:06.696Z,7.28
2018-12-09T11:37:35.351Z,7.28
2018-12-09T11:40:05.320Z,7.28
2018-12-09T11:42:34.510Z,7.35
2018-12-09T11:45:04.691Z,7.41
2018-12-09T11:47:33.876Z,7.38
2018-12-09T11:50:02.327Z,7.45
2018-12-09T11:52:30.761Z,7.43
2018-12-09T11:55:00.260Z,7.45
2018-12-09T11:57:28.924Z,7.44
2018-12-09T11:59:57.379Z,7.45
2018-12-09T12:02:25.814Z,7.41
2018-12-09T12:04:54.281Z,7.40
2018-12-09T12:07:23.083Z,7.34
2018-12-09T12:09:52.144Z,7.33
2018-12-09T12:12:21.538Z,7.30
2018-12-09T12:14:50.461Z,7.30
2018-12-09T12:17:19.124Z,7.19
2018-12-09T12:19:48.116Z,7.15
2018-12-09T12:22:16.558Z,7.07
2018-12-09T12:24:45.051Z,7.05
2018-12-09T12:27:13.493Z,7.03
2018-12-09T12:29:41.954Z,6.99
2018-12-09T12:32:10.389Z,6.99
2018-12-09T12:34:38.858Z,7.04
2018-12-09T12:37:08.260Z,7.02
2018-12-09T12:39:36.755Z,6.98
2018-12-09T12:42:05.325Z,6.97
2018-12-09T12:44:38.786Z,7.05
2018-12-09T12:47:07.336Z,7.10
2018-12-09T12:49:36.291Z,7.12
2018-12-09T12:52:05.636Z,7.16
2018-12-09T12:54:35.039Z,7.12
2018-12-09T12:57:03.466Z,7.08
2018-12-09T12:59:31.918Z,7.14
2018-12-09T13:02:00.733Z,7.11
2018-12-09T13:04:29.428Z,7.08
2018-12-09T13:06:59.109Z,7.16
2018-12-09T13:09:27.571Z,7.11
2018-12-09T13:11:57.074Z,7.09
2018-12-09T13:14:27.682Z,7.13
2018-12-09T13:16:57.841Z,7.14
2018-12-09T13:19:28.166Z,7.08
2018-12-09T13:22:06.991Z,7.04
2018-12-09T13:24:41.933Z,7.02
2018-12-09T13:27:11.615Z,7.01
2018-12-09T13:29:42.831Z,6.98
2018-12-09T13:32:11.420Z,6.97
2018-12-09T13:34:40.622Z,6.96
2018-12-09T13:37:10.641Z,6.91
2018-12-09T13:39:41.943Z,6.89
2018-12-09T13:42:13.168Z,6.91
2018-12-09T13:44:42.406Z,6.88
2018-12-09T13:47:11.733Z,6.91
2018-12-09T13:49:45.230Z,6.87
2018-12-09T13:52:16.455Z,6.98
2018-12-09T13:54:45.915Z,6.99
2018-12-09T13:57:16.314Z,7.01
2018-12-09T13:59:46.438Z,6.89
2018-12-09T14:02:16.481Z,6.84
2018-12-09T14:04:48.765Z,6.75
2018-12-09T14:07:17.835Z,6.68
2018-12-09T14:09:47.312Z,6.61
2018-12-09T14:12:20.646Z,6.47
2018-12-09T14:14:49.480Z,6.42
2018-12-09T14:17:18.777Z,6.49
2018-12-09T14:19:50.258Z,6.50
2018-12-09T14:22:20.165Z,6.52
2018-12-09T14:24:51.645Z,6.47
2018-12-09T14:27:23.345Z,6.51
2018-12-09T14:29:58.890Z,6.46
2018-12-09T14:32:32.288Z,6.40
2018-12-09T14:35:06.695Z,6.43
2018-12-09T14:37:38.137Z,6.37
2018-12-09T14:40:12.212Z,6.33
2018-12-09T14:42:44.760Z,6.28
2018-12-09T14:45:19.794Z,6.26
2018-12-09T14:47:51.309Z,6.21
2018-12-09T14:50:21.534Z,6.17
2018-12-09T14:52:52.945Z,6.10
2018-12-09T14:55:25.330Z,6.03
2018-12-09T14:57:54.813Z,6.00
2018-12-09T15:00:26.600Z,5.94
2018-12-09T15:02:58.582Z,5.93
2018-12-09T15:05:32.362Z,5.92
2018-12-09T15:08:02.555Z,5.90
2018-12-09T15:10:35.121Z,5.91
2018-12-09T15:13:08.141Z,5.92
2018-12-09T15:15:39.268Z,5.92
2018-12-09T15:18:11.069Z,5.91
2018-12-09T15:20:42.248Z,5.85
2018-12-09T15:23:11.590Z,5.81
2018-12-09T15:25:42.449Z,5.79
2018-12-09T15:28:13.324Z,5.74
2018-12-09T15:30:44.293Z,5.75
2018-12-09T15:33:15.743Z,5.74
2018-12-09T15:35:44.445Z,5.72
2018-12-09T15:38:18.837Z,5.75
2018-12-09T15:40:51.196Z,5.71
2018-12-09T15:43:24.213Z,5.71
2018-12-09T15:45:55.972Z,5.65
2018-12-09T15:48:28.114Z,5.67
2018-12-09T15:51:05.564Z,5.72
2018-12-09T15:53:34.232Z,5.63
2018-12-09T15:56:07.740Z,5.64
2018-12-09T15:58:39.824Z,5.65
2018-12-09T16:01:11.628Z,5.60
2018-12-09T16:03:43.894Z,5.55
2018-12-09T16:06:24.517Z,5.52
2018-12-09T16:08:54.442Z,5.48
2018-12-09T16:11:30.753Z,5.53
2018-12-09T16:14:03.956Z,5.49
2018-12-09T16:16:36.184Z,5.38
2018-12-09T16:19:09.713Z,5.44
2018-12-09T16:21:40.660Z,5.38
2018-12-09T16:24:10.110Z,5.34
2018-12-09T16:26:51.562Z,5.27
2018-12-09T16:29:20.485Z,5.27
2018-12-09T16:31:50.605Z,5.22
2018-12-09T16:34:19.233Z,5.19
2018-12-09T16:36:48.054Z,5.21
2018-12-09T16:39:16.610Z,5.27
2018-12-09T16:41:46.673Z,5.25
2018-12-09T16:44:17.368Z,5.13
2018-12-09T16:46:53.416Z,5.17
2018-12-09T16:49:29.595Z,5.12
2018-12-09T16:52:07.443Z,5.15
2018-12-09T16:54:41.505Z,5.20
2018-12-09T16:57:10.926Z,5.23
2018-12-09T16:59:42.051Z,5.20
2018-12-09T17:02:16.673Z,5.27
2018-12-09T17:04:47.490Z,5.32
2018-12-09T17:07:20.652Z,5.26
2018-12-09T17:10:00.043Z,5.36
2018-12-09T17:12:38.821Z,5.40
2018-12-09T17:15:17.908Z,5.46
2018-12-09T17:17:49.235Z,5.42
2018-12-09T17:20:21.374Z,5.30
2018-12-09T17:22:52.617Z,5.36
2018-12-09T17:25:24.855Z,5.46
2018-12-09T17:28:01.245Z,5.47
2018-12-09T17:30:36.799Z,5.52
2018-12-09T17:33:08.912Z,5.51
2018-12-09T17:35:49.019Z,5.43
2018-12-09T17:38:23.197Z,5.33
2018-12-09T17:41:00.525Z,5.35
2018-12-09T17:43:39.013Z,5.25
2018-12-09T17:46:10.822Z,5.23
2018-12-09T17:48:44.347Z,5.28
2018-12-09T17:51:16.614Z,5.33
2018-12-09T17:53:46.368Z,5.36
2018-12-09T17:56:19.875Z,5.52
2018-12-09T17:58:49.711Z,5.55
2018-12-09T18:01:19.841Z,5.62
2018-12-09T18:03:50.281Z,5.59
2018-12-09T18:06:23.864Z,5.62
2018-12-09T18:08:54.011Z,5.65
2018-12-09T18:11:24.409Z,5.70
2018-12-09T18:13:55.172Z,5.60
2018-12-09T18:16:25.405Z,5.70
2018-12-09T18:18:55.000Z,5.66
2018-12-09T18:21:25.265Z,5.79
2018-12-09T18:23:55.308Z,5.70
2018-12-09T18:26:24.217Z,5.85
2018-12-09T18:28:55.919Z,5.89
2018-12-09T18:31:26.005Z,5.97
2018-12-09T18:33:56.211Z,6.04
2018-12-09T18:36:25.030Z,6.06
2018-12-09T18:38:55.340Z,6.08
2018-12-09T18:41:26.001Z,6.17
2018-12-09T18:43:56.604Z,6.19
2018-12-09T18:46:26.849Z,6.21
2018-12-09T18:48:58.130Z,6.24
2018-12-09T18:51:32.030Z,6.29
2018-12-09T18:54:02.492Z,6.29
2018-12-09T18:56:38.907Z,6.34
2018-12-09T18:59:10.391Z,6.38
2018-12-09T19:01:45.739Z,6.36
2018-12-09T19:04:19.424Z,6.41
2018-12-09T19:07:00.155Z,6.37
2018-12-09T19:09:31.908Z,6.47
2018-12-09T19:12:05.555Z,6.50
2018-12-09T19:14:36.828Z,6.50
2018-12-09T19:17:06.192Z,6.50
2018-12-09T19:19:39.171Z,6.49
2018-12-09T19:22:09.543Z,6.46
2018-12-09T19:24:38.081Z,6.47
2018-12-09T19:27:06.944Z,6.51
2018-12-09T19:29:35.468Z,6.51
2018-12-09T19:32:06.423Z,6.47
2018-12-09T19:34:36.804Z,6.49
2018-12-09T19:37:05.695Z,6.47
2018-12-09T19:39:35.407Z,6.45
2018-12-09T19:42:07.661Z,6.40
2018-12-09T19:44:36.173Z,6.39
2018-12-09T19:47:08.431Z,6.38
2018-12-09T19:49:37.622Z,6.37
2018-12-09T19:52:07.216Z,6.40
2018-12-09T19:54:37.765Z,6.43
2018-12-09T19:57:06.515Z,6.50
2018-12-09T19:59:36.516Z,6.35
2018-12-09T20:02:04.948Z,6.38
2018-12-09T20:04:33.394Z,6.58
2018-12-09T20:07:02.816Z,6.62
2018-12-09T20:09:32.444Z,6.61
2018-12-09T20:12:00.912Z,6.64
2018-12-09T20:14:29.837Z,6.62
2018-12-09T20:16:59.340Z,6.62
2018-12-09T20:19:27.868Z,6.60
2018-12-09T20:21:56.334Z,6.52
2018-12-09T20:24:24.764Z,6.62
2018-12-09T20:26:53.551Z,6.54
2018-12-09T20:29:22.995Z,6.51
2018-12-09T20:31:52.471Z,6.41
2018-12-09T20:34:21.320Z,6.40
2018-12-09T20:36:49.763Z,6.47
2018-12-09T20:39:18.215Z,6.41
2018-12-09T20:41:46.634Z,6.40
2018-12-09T20:44:15.976Z,6.47
2018-12-09T20:46:45.095Z,6.40
2018-12-09T20:49:14.906Z,6.33
2018-12-09T20:51:43.582Z,6.28
2018-12-09T20:54:12.027Z,6.24
2018-12-09T20:56:41.288Z,6.16
2018-12-09T20:59:10.121Z,6.14
2018-12-09T21:01:38.575Z,6.07
2018-12-09T21:04:08.391Z,5.99
2018-12-09T21:06:36.821Z,6.00
2018-12-09T21:09:08.203Z,6.08
2018-12-09T21:11:36.667Z,6.11
2018-12-09T21:14:05.110Z,6.17
2018-12-09T21:16:33.835Z,6.16
2018-12-09T21:19:02.367Z,6.17
2018-12-09T21:21:31.814Z,6.18
2018-12-09T21:24:00.574Z,6.25
2018-12-09T21:26:29.525Z,6.23
2018-12-09T21:28:57.961Z,6.21
2018-12-09T21:31:26.732Z,6.15
2018-12-09T21:33:55.527Z,6.02
2018-12-09T21:36:25.524Z,6.01
2018-12-09T21:38:53.942Z,5.99
2018-12-09T21:41:22.437Z,6.03
2018-12-09T21:43:51.472Z,5.95
2018-12-09T21:46:20.057Z,5.91
2018-12-09T21:48:48.501Z,5.99
2018-12-09T21:51:17.374Z,6.05
2018-12-09T21:53:46.791Z,6.05
2018-12-09T21:56:15.962Z,5.96
2018-12-09T21:58:45.045Z,5.92
2018-12-09T22:01:14.118Z,5.98
2018-12-09T22:03:42.838Z,5.96
2018-12-09T22:06:11.536Z,6.00
2018-12-09T22:08:39.993Z,6.09
2018-12-09T22:11:08.779Z,6.10
2018-12-09T22:13:37.467Z,6.11
2018-12-09T22:16:06.482Z,6.10
2018-12-09T22:18:35.955Z,6.08
2018-12-09T22:21:05.484Z,6.05
2018-12-09T22:23:35.131Z,6.01
2018-12-09T22:26:04.495Z,5.95
2018-12-09T22:28:33.166Z,5.99
2018-12-09T22:31:02.686Z,5.96
2018-12-09T22:33:32.095Z,5.97
2018-12-09T22:36:00.565Z,6.03
2018-12-09T22:38:29.598Z,6.06
2018-12-09T22:40:58.276Z,6.07
2018-12-09T22:43:29.083Z,6.11
2018-12-09T22:45:59.038Z,6.12
2018-12-09T22:48:27.860Z,6.03
2018-12-09T22:50:56.792Z,6.08
2018-12-09T22:53:27.101Z,6.07
2018-12-09T22:55:55.572Z,6.07
2018-12-09T22:58:24.382Z,6.03
2018-12-09T23:00:58.367Z,6.04
2018-12-09T23:03:28.018Z,6.08
2018-12-09T23:05:57.114Z,6.02
2018-12-09T23:08:27.003Z,6.05
2018-12-09T23:10:55.788Z,6.02
2018-12-09T23:13:24.277Z,6.03
2018-12-09T23:15:53.131Z,6.01
2018-12-09T23:18:22.122Z,6.01
2018-12-09T23:20:51.839Z,6.06
2018-12-09T23:23:22.995Z,5.95
2018-12-09T23:25:51.434Z,5.96
2018-12-09T23:28:20.507Z,5.98
2018-12-09T23:30:49.031Z,5.93
2018-12-09T23:33:17.778Z,5.97
2018-12-09T23:35:47.229Z,6.03
2018-12-09T23:38:16.402Z,5.98
2018-12-09T23:40:45.380Z,6.05
2018-12-09T23:43:13.847Z,5.99
2018-12-09T23:45:42.805Z,5.98
2018-12-09T23:48:13.041Z,5.92
2018-12-09T23:50:41.463Z,5.92
2018-12-09T23:53:10.000Z,5.89
2018-12-09T23:55:38.763Z,5.88
2018-12-09T23:58:09.004Z,5.88
